Time;durP1;ratioP1;P1;durP2;ratioP2;P2;SDS_P1;SDS_P2;PMS_P1;PMS_P2;Temp;Humidity;BMP_temperature;BMP_pressure;BME280_temperature;BME280_humidity;BME280_pressure;Samples;Min_cycle;Max_cycle;Signal;HPM_P1;HPM_P2
2023/10/16 00:01:41;;;;;;;3.80;0.90;;;7.10;99.90;;;;;;5031027;28;20056;-83
2023/10/16 00:04:06;;;;;;;4.88;1.50;;;7.10;99.90;;;;;;5048679;28;20045;-84
2023/10/16 00:06:34;;;;;;;4.88;1.15;;;7.10;99.90;;;;;;5045256;28;20048;-83
2023/10/16 00:09:14;;;;;;;3.58;1.00;;;7.10;99.90;;;;;;5031516;28;20089;-84
2023/10/16 00:11:40;;;;;;;5.10;1.10;;;7.10;99.90;;;;;;5028922;28;20116;-84
2023/10/16 00:14:30;;;;;;;1.95;1.02;;;7.10;99.90;;;;;;5048325;28;20051;-84
2023/10/16 00:16:52;;;;;;;1.52;0.90;;;7.20;99.90;;;;;;5031080;28;20060;-84
2023/10/16 00:19:17;;;;;;;2.25;0.70;;;7.20;99.90;;;;;;5029575;28;20041;-84
2023/10/16 00:21:46;;;;;;;2.15;0.95;;;7.20;99.90;;;;;;5029968;28;20421;-83
2023/10/16 00:24:12;;;;;;;3.15;0.98;;;7.20;99.90;;;;;;5030614;28;20049;-84
2023/10/16 00:26:48;;;;;;;3.05;1.17;;;7.60;99.90;;;;;;5030287;28;20137;-84
2023/10/16 00:29:19;;;;;;;3.10;1.00;;;7.20;99.90;;;;;;5047141;28;20139;-83
2023/10/16 00:31:46;;;;;;;3.58;1.00;;;7.20;99.90;;;;;;5035320;28;20186;-84
2023/10/16 00:34:19;;;;;;;2.72;1.20;;;7.20;99.90;;;;;;5048244;28;20125;-83
2023/10/16 00:36:46;;;;;;;3.75;1.00;;;7.10;99.90;;;;;;5048490;28;20179;-83
2023/10/16 00:39:15;;;;;;;2.38;1.10;;;7.10;99.90;;;;;;5030652;28;20037;-84
2023/10/16 00:41:43;;;;;;;4.25;1.35;;;7.10;99.90;;;;;;5013744;28;20064;-84
2023/10/16 00:44:09;;;;;;;3.35;1.38;;;7.10;99.90;;;;;;5046486;28;20532;-84
2023/10/16 00:46:37;;;;;;;4.78;1.33;;;7.00;99.90;;;;;;5029808;28;20460;-83
2023/10/16 00:49:06;;;;;;;4.25;1.00;;;7.00;99.90;;;;;;5044627;28;20496;-84
2023/10/16 00:51:38;;;;;;;3.60;1.60;;;7.00;99.90;;;;;;5014482;28;20053;-84
2023/10/16 00:54:18;;;;;;;3.83;1.08;;;7.10;99.90;;;;;;5030071;28;20490;-83
2023/10/16 00:56:51;;;;;;;4.05;1.27;;;7.10;99.90;;;;;;5047810;28;20131;-84
2023/10/16 00:59:17;;;;;;;2.92;1.17;;;7.10;99.90;;;;;;5046113;28;20457;-83
2023/10/16 01:01:47;;;;;;;3.55;1.10;;;7.70;99.90;;;;;;5047987;28;20048;-84
2023/10/16 01:04:13;;;;;;;2.63;1.80;;;7.10;99.90;;;;;;5027343;28;20091;-84
2023/10/16 01:06:41;;;;;;;4.13;1.27;;;7.10;99.90;;;;;;5047452;28;20041;-84
2023/10/16 01:09:22;;;;;;;4.68;1.30;;;7.20;99.90;;;;;;5047877;28;20037;-84
2023/10/16 01:11:48;;;;;;;1.98;1.23;;;7.10;99.90;;;;;;5046948;28;20500;-84
2023/10/16 01:14:14;;;;;;;1.33;1.02;;;7.20;99.90;;;;;;5025760;28;20363;-84
2023/10/16 01:16:39;;;;;;;4.57;1.20;;;7.10;99.90;;;;;;5030417;28;20052;-84
2023/10/16 01:19:09;;;;;;;3.13;1.38;;;7.10;99.90;;;;;;5044778;28;20553;-84
2023/10/16 01:21:35;;;;;;;2.00;1.15;;;7.10;99.90;;;;;;5045537;28;20669;-84
2023/10/16 01:24:11;;;;;;;2.22;1.40;;;7.10;99.90;;;;;;5047080;28;20381;-85
2023/10/16 01:26:40;;;;;;;2.63;1.25;;;7.00;99.90;;;;;;5046374;28;20045;-83
2023/10/16 01:29:08;;;;;;;3.65;1.20;;;7.00;99.90;;;;;;5030396;28;20052;-84
2023/10/16 01:31:36;;;;;;;3.20;1.42;;;7.00;99.90;;;;;;5030532;28;20056;-84
2023/10/16 01:34:10;;;;;;;4.00;1.30;;;7.00;99.90;;;;;;5047224;28;20040;-84
2023/10/16 01:36:45;;;;;;;2.15;0.98;;;7.00;99.90;;;;;;5047016;28;20053;-84
2023/10/16 01:39:47;;;;;;;2.40;1.20;;;7.10;99.90;;;;;;5047343;28;20294;-84
2023/10/16 01:42:01;;;;;;;3.33;1.00;;;7.10;99.90;;;;;;5028903;28;20182;-85
2023/10/16 01:44:28;;;;;;;4.25;1.02;;;7.20;99.90;;;;;;5047283;28;20146;-85
2023/10/16 01:46:54;;;;;;;3.50;1.15;;;7.20;99.90;;;;;;5029608;28;20049;-85
2023/10/16 01:49:21;;;;;;;2.70;1.10;;;7.30;99.90;;;;;;5029409;28;20041;-84
2023/10/16 01:51:48;;;;;;;2.55;0.98;;;7.30;99.90;;;;;;5012033;28;20123;-84
2023/10/16 01:54:14;;;;;;;2.72;1.20;;;7.30;99.90;;;;;;5028977;28;20052;-84
2023/10/16 01:56:41;;;;;;;3.92;1.20;;;7.40;99.90;;;;;;5046274;28;20048;-85
2023/10/16 01:59:07;;;;;;;2.42;1.30;;;7.40;99.90;;;;;;5047584;28;20045;-84
2023/10/16 02:01:32;;;;;;;3.25;0.90;;;7.40;99.90;;;;;;5029200;28;20052;-84
2023/10/16 02:04:01;;;;;;;2.38;1.40;;;7.40;99.90;;;;;;5029487;28;20075;-84
2023/10/16 02:06:26;;;;;;;2.65;0.98;;;7.40;99.90;;;;;;5028273;28;20144;-84
2023/10/16 02:08:52;;;;;;;4.10;1.20;;;7.40;99.90;;;;;;5035188;28;20140;-84
2023/10/16 02:11:17;;;;;;;2.50;1.50;;;7.50;99.90;;;;;;5045656;28;20049;-84
2023/10/16 02:13:43;;;;;;;1.63;1.05;;;7.50;99.90;;;;;;5013924;28;20044;-85
2023/10/16 02:16:12;;;;;;;1.50;1.10;;;7.40;99.90;;;;;;5029072;28;20183;-84
2023/10/16 02:18:41;;;;;;;4.78;1.17;;;7.40;99.90;;;;;;5047946;28;20049;-84
2023/10/16 02:21:14;;;;;;;1.92;1.27;;;7.30;99.90;;;;;;5045899;28;20063;-84
2023/10/16 02:23:40;;;;;;;;;;;7.30;99.90;;;;;;5028667;28;20117;-84
2023/10/16 02:26:06;;;;;;;2.60;1.50;;;7.20;99.90;;;;;;5012926;28;20004;-84
2023/10/16 02:28:33;;;;;;;2.58;1.45;;;7.20;99.90;;;;;;5028889;28;20075;-84
2023/10/16 02:31:16;;;;;;;3.58;1.40;;;7.10;99.90;;;;;;5014400;28;20064;-85
2023/10/16 02:33:50;;;;;;;2.20;1.42;;;7.10;99.90;;;;;;5033611;28;20628;-84
2023/10/16 02:36:19;;;;;;;4.20;1.63;;;7.10;99.90;;;;;;5050389;28;20048;-84
2023/10/16 02:38:48;;;;;;;3.00;1.60;;;7.10;99.90;;;;;;5033303;28;20041;-84
2023/10/16 02:41:16;;;;;;;2.55;1.80;;;7.10;99.90;;;;;;5050217;28;20140;-84
2023/10/16 02:43:41;;;;;;;6.30;2.03;;;7.20;99.90;;;;;;5051490;28;20045;-83
2023/10/16 02:46:10;;;;;;;5.25;2.10;;;7.30;99.90;;;;;;5050526;28;20033;-83
2023/10/16 02:48:36;;;;;;;2.97;2.13;;;7.20;99.90;;;;;;5049558;28;20045;-83
2023/10/16 02:51:02;;;;;;;5.32;2.38;;;7.20;99.90;;;;;;5050407;28;20448;-83
2023/10/16 02:53:33;;;;;;;4.65;2.30;;;7.20;99.90;;;;;;5033119;28;20059;-83
2023/10/16 02:56:08;;;;;;;5.85;2.45;;;7.20;99.90;;;;;;5032453;28;20048;-83
2023/10/16 02:58:42;;;;;;;3.85;2.42;;;7.10;99.90;;;;;;5032373;28;20051;-83
2023/10/16 03:01:13;;;;;;;3.80;2.75;;;7.80;99.90;;;;;;5050837;28;20136;-83
2023/10/16 03:03:43;;;;;;;9.30;2.90;;;7.00;99.90;;;;;;5016165;28;20049;-83
2023/10/16 03:06:09;;;;;;;6.28;3.05;;;7.00;99.90;;;;;;5032815;28;20524;-83
2023/10/16 03:08:36;;;;;;;7.03;3.17;;;6.90;99.90;;;;;;5050450;28;20154;-83
2023/10/16 03:11:06;;;;;;;6.90;3.28;;;6.80;99.90;;;;;;5049486;28;20520;-83
2023/10/16 03:13:35;;;;;;;5.53;2.90;;;6.80;99.90;;;;;;5049246;28;20417;-83
2023/10/16 03:16:15;;;;;;;5.20;3.30;;;6.80;99.90;;;;;;5032907;28;20049;-83
2023/10/16 03:18:43;;;;;;;7.00;3.70;;;6.70;99.90;;;;;;5030605;28;20051;-83
2023/10/16 03:23:46;;;;;;;4.63;3.28;;;6.60;99.90;;;;;;5031010;28;20053;-83
2023/10/16 03:26:28;;;;;;;4.55;3.10;;;6.70;99.90;;;;;;5027341;28;20460;-83
2023/10/16 03:28:56;;;;;;;;;;;6.70;99.90;;;;;;5044795;28;20040;-84
2023/10/16 03:31:23;;;;;;;5.07;3.50;;;6.70;99.90;;;;;;5024577;28;19928;-83
2023/10/16 03:33:49;;;;;;;6.72;3.88;;;6.70;99.90;;;;;;5020115;28;20053;-83
2023/10/16 03:36:15;;;;;;;4.43;3.58;;;6.80;99.90;;;;;;5045181;28;20060;-83
2023/10/16 03:38:41;;;;;;;5.68;3.97;;;6.90;99.90;;;;;;5030695;28;20060;-83
2023/10/16 03:43:48;;;;;;;7.35;4.20;;;6.90;99.90;;;;;;5050174;28;20056;-83
2023/10/16 03:46:14;;;;;;;7.60;4.03;;;7.00;99.90;;;;;;5015321;28;20090;-83
2023/10/16 03:48:40;;;;;;;9.27;4.13;;;7.00;99.90;;;;;;5016202;28;20049;-84
2023/10/16 03:51:07;;;;;;;7.63;4.38;;;7.10;99.90;;;;;;5014499;28;20055;-85
2023/10/16 03:53:35;;;;;;;5.50;3.70;;;7.10;99.90;;;;;;5031742;28;20063;-83
2023/10/16 03:56:02;;;;;;;7.85;4.05;;;7.10;99.90;;;;;;5049720;28;20041;-84
2023/10/16 03:58:33;;;;;;;7.47;4.15;;;7.10;99.90;;;;;;5030572;28;20041;-83
2023/10/16 04:01:07;;;;;;;5.80;3.75;;;7.20;99.90;;;;;;5031095;28;20056;-83
2023/10/16 04:03:46;;;;;;;7.82;3.90;;;7.20;99.90;;;;;;5030968;28;20124;-83
2023/10/16 04:06:12;;;;;;;5.07;3.38;;;7.20;99.90;;;;;;5028174;28;20100;-83
2023/10/16 04:08:38;;;;;;;6.72;3.85;;;7.30;99.90;;;;;;5046775;28;20048;-83
2023/10/16 04:11:03;;;;;;;5.60;3.80;;;7.30;99.90;;;;;;5030948;28;20037;-83
2023/10/16 04:13:32;;;;;;;6.15;3.50;;;7.30;99.90;;;;;;5049986;28;20924;-83
2023/10/16 04:18:33;;;;;;;7.63;4.03;;;7.40;99.90;;;;;;5031865;28;20053;-83
2023/10/16 04:37:29;;;;;;;4.68;2.65;;;7.40;99.90;;;;;;5031068;28;20064;-83
2023/10/16 05:16:36;;;;;;;4.90;2.30;;;7.40;99.90;;;;;;5028614;28;20061;-83
2023/10/16 05:19:15;;;;;;;4.30;2.20;;;7.50;99.90;;;;;;5047074;28;20102;-83
2023/10/16 06:16:17;;;;;;;5.70;2.47;;;7.60;99.90;;;;;;5007325;28;20447;-84
2023/10/16 06:18:47;;;;;;;8.18;2.50;;;7.60;99.90;;;;;;5008124;28;20046;-82
2023/10/16 06:21:16;;;;;;;3.03;2.28;;;7.60;99.90;;;;;;5023436;28;20052;-84
2023/10/16 06:23:48;;;;;;;6.05;2.30;;;7.60;99.90;;;;;;5024544;28;20049;-85
2023/10/16 06:26:18;;;;;;;4.55;2.42;;;7.70;99.90;;;;;;5024641;28;20049;-87
2023/10/16 06:28:47;;;;;;;4.40;2.40;;;7.60;99.90;;;;;;5027578;28;20038;-87
2023/10/16 06:31:23;;;;;;;4.30;2.30;;;7.60;99.90;;;;;;5026035;28;20064;-85
2023/10/16 06:33:53;;;;;;;7.43;2.70;;;7.70;99.90;;;;;;5026260;28;20076;-86
2023/10/16 06:36:20;;;;;;;4.82;2.22;;;7.70;99.90;;;;;;5025819;28;20053;-86
2023/10/16 06:38:51;;;;;;;4.10;2.17;;;7.80;99.90;;;;;;5024935;28;20046;-85
2023/10/16 06:41:18;;;;;;;4.70;2.30;;;7.80;99.90;;;;;;5009339;28;20473;-86
2023/10/16 06:43:47;;;;;;;4.25;2.25;;;7.90;99.90;;;;;;5026420;28;20049;-86
2023/10/16 06:46:23;;;;;;;4.10;2.15;;;7.90;99.90;;;;;;5026241;28;20503;-85
2023/10/16 06:48:52;;;;;;;5.05;2.28;;;8.00;99.90;;;;;;5026442;28;20052;-85
2023/10/16 06:51:25;;;;;;;4.88;2.50;;;8.10;99.90;;;;;;5025613;28;20041;-85
2023/10/16 06:53:53;;;;;;;4.70;2.40;;;8.20;99.90;;;;;;5008637;28;20037;-85
2023/10/16 06:56:30;;;;;;;5.55;2.33;;;8.20;99.90;;;;;;5024498;28;20120;-85
2023/10/16 06:58:57;;;;;;;4.93;2.08;;;8.30;99.90;;;;;;5026225;28;20053;-86
2023/10/16 07:01:25;;;;;;;7.28;2.47;;;9.30;99.90;;;;;;5026139;28;20046;-85
2023/10/16 07:03:54;;;;;;;5.88;2.55;;;8.40;99.90;;;;;;5025386;28;20049;-84
2023/10/16 07:06:32;;;;;;;3.85;2.05;;;8.50;99.90;;;;;;5008809;28;20256;-84
2023/10/16 07:09:00;;;;;;;5.90;2.20;;;8.50;99.90;;;;;;5023288;28;20630;-83
2023/10/16 07:11:27;;;;;;;6.72;2.60;;;8.60;99.90;;;;;;5025828;28;20053;-85
2023/10/16 07:13:53;;;;;;;4.10;2.10;;;8.60;99.90;;;;;;5009705;28;20083;-86
2023/10/16 07:16:20;;;;;;;6.63;2.17;;;8.70;99.90;;;;;;5025909;28;20132;-85
2023/10/16 07:18:50;;;;;;;4.00;2.35;;;9.60;99.90;;;;;;5013944;28;20045;-85
2023/10/16 07:21:19;;;;;;;4.20;2.17;;;8.70;99.90;;;;;;5029123;28;20049;-83
2023/10/16 07:23:44;;;;;;;3.90;1.90;;;8.70;99.90;;;;;;5029251;28;20079;-85
2023/10/16 07:26:10;;;;;;;3.38;2.05;;;8.80;99.90;;;;;;5027945;28;20132;-85
2023/10/16 07:28:38;;;;;;;4.93;2.42;;;8.80;99.90;;;;;;5028376;28;20124;-85
2023/10/16 07:31:05;;;;;;;2.95;2.33;;;8.90;99.90;;;;;;5029226;28;20057;-84
2023/10/16 07:33:32;;;;;;;4.78;2.08;;;9.50;99.90;;;;;;5028485;28;20057;-85
2023/10/16 07:36:01;;;;;;;6.28;2.15;;;9.00;99.90;;;;;;5029316;28;20095;-87
2023/10/16 07:38:28;;;;;;;3.63;2.10;;;9.00;99.90;;;;;;5029684;28;20056;-84
2023/10/16 07:40:59;;;;;;;4.93;1.90;;;9.10;99.90;;;;;;5028173;28;20095;-84
2023/10/16 07:43:27;;;;;;;5.25;1.90;;;9.10;99.90;;;;;;5027111;28;20045;-85
2023/10/16 07:46:17;;;;;;;3.83;1.75;;;9.20;99.90;;;;;;5010332;28;20094;-85
2023/10/16 07:48:52;;;;;;;3.40;1.88;;;9.20;99.90;;;;;;5027085;28;20045;-85
2023/10/16 07:51:20;;;;;;;3.20;1.60;;;9.30;99.90;;;;;;5011817;28;20103;-83
2023/10/16 07:53:50;;;;;;;4.82;1.80;;;9.30;99.90;;;;;;5029115;28;20176;-85
2023/10/16 07:56:19;;;;;;;3.92;1.60;;;9.40;99.90;;;;;;5012742;28;20187;-86
2023/10/16 07:58:48;;;;;;;4.05;1.70;;;10.10;99.90;;;;;;5028642;28;20084;-85
2023/10/16 08:01:32;;;;;;;5.78;2.63;;;9.60;99.90;;;;;;5028490;28;20053;-85
2023/10/16 08:03:58;;;;;;;3.38;1.92;;;9.70;99.90;;;;;;5027365;28;20132;-84
2023/10/16 08:06:25;;;;;;;4.18;1.70;;;9.90;99.90;;;;;;5027101;28;20145;-86
2023/10/16 08:09:48;;;;;;;2.75;2.00;;;9.80;99.90;;;;;;5028426;28;20479;-86
2023/10/16 08:11:44;;;;;;;3.72;1.70;;;9.90;99.90;;;;;;5027743;28;20057;-86
2023/10/16 08:14:10;;;;;;;3.85;1.83;;;9.40;99.90;;;;;;5012636;28;20049;-85
2023/10/16 08:16:38;;;;;;;4.22;1.88;;;10.30;99.90;;;;;;5027783;28;20045;-85
2023/10/16 08:19:14;;;;;;;2.25;1.45;;;10.10;99.90;;;;;;5024799;28;20053;-85
2023/10/16 08:21:44;;;;;;;3.60;1.50;;;11.00;99.90;;;;;;5024141;28;20491;-84
2023/10/16 08:24:13;;;;;;;2.97;1.50;;;10.20;99.90;;;;;;5027201;28;20091;-84
2023/10/16 08:26:43;;;;;;;2.60;1.50;;;10.20;99.90;;;;;;5027529;28;20050;-85
2023/10/16 08:29:11;;;;;;;3.97;1.40;;;10.20;99.90;;;;;;5026824;28;21291;-84
2023/10/16 08:31:41;;;;;;;2.50;1.30;;;10.20;99.90;;;;;;5026494;28;20041;-85
2023/10/16 08:34:21;;;;;;;2.63;1.10;;;10.30;99.90;;;;;;5028209;28;20045;-84
2023/10/16 08:36:50;;;;;;;4.05;1.27;;;10.40;99.90;;;;;;5026616;28;20051;-83
2023/10/16 08:39:17;;;;;;;4.22;1.20;;;10.50;99.90;;;;;;5025273;28;20136;-86
2023/10/16 08:41:43;;;;;;;4.32;1.27;;;10.60;99.90;;;;;;5010799;28;20044;-86
2023/10/16 08:44:17;;;;;;;4.57;1.30;;;10.70;99.90;;;;;;5044646;28;20049;-86
2023/10/16 08:46:53;;;;;;;3.78;1.13;;;10.70;99.90;;;;;;5028509;28;20053;-86
2023/10/16 08:49:23;;;;;;;3.75;1.23;;;10.70;99.90;;;;;;5010586;28;20041;-86
2023/10/16 08:52:04;;;;;;;4.00;1.73;;;10.80;99.90;;;;;;5026852;28;20041;-85
2023/10/16 08:57:28;;;;;;;3.75;1.40;;;11.00;99.90;;;;;;5027472;28;20082;-87
2023/10/16 08:59:58;;;;;;;6.72;1.77;;;11.60;99.90;;;;;;5027562;28;20041;-85
2023/10/16 09:02:25;;;;;;;4.45;1.20;;;11.30;99.90;;;;;;5028313;28;20055;-86
2023/10/16 09:04:54;;;;;;;4.07;1.27;;;11.30;99.90;;;;;;5028371;28;20049;-87
2023/10/16 09:07:20;;;;;;;2.10;1.10;;;11.40;99.90;;;;;;5027254;28;20099;-87
2023/10/16 09:09:49;;;;;;;4.72;1.20;;;11.40;99.90;;;;;;5025100;28;20053;-86
2023/10/16 09:12:27;;;;;;;4.38;1.40;;;11.80;99.90;;;;;;5036315;28;20041;-86
2023/10/16 09:15:05;;;;;;;3.90;1.38;;;11.50;99.90;;;;;;5028033;28;20067;-82
2023/10/16 09:17:33;;;;;;;2.55;1.40;;;11.60;99.90;;;;;;5027949;28;20419;-87
2023/10/16 09:19:59;;;;;;;4.07;1.15;;;12.50;99.90;;;;;;5027708;28;20136;-88
2023/10/16 09:22:26;;;;;;;4.25;1.23;;;11.70;99.90;;;;;;5028893;28;20136;-87
2023/10/16 09:24:52;;;;;;;3.08;1.23;;;12.30;99.90;;;;;;5026817;28;20511;-87
2023/10/16 09:27:30;;;;;;;3.00;1.48;;;11.70;99.90;;;;;;5026575;28;20049;-89
2023/10/16 09:29:58;;;;;;;7.05;1.63;;;11.60;99.90;;;;;;4995907;28;20049;-86
2023/10/16 09:32:39;;;;;;;4.53;1.77;;;11.60;99.90;;;;;;5028083;28;20079;-86
2023/10/16 09:35:12;;;;;;;5.68;1.20;;;11.60;99.90;;;;;;5027059;28;20049;-87
2023/10/16 09:37:47;;;;;;;2.78;1.05;;;11.80;99.90;;;;;;5026876;28;20084;-87
2023/10/16 09:43:08;;;;;;;3.70;1.30;;;11.80;99.90;;;;;;5026966;28;20057;-87
2023/10/16 09:45:35;;;;;;;4.13;1.20;;;11.90;99.90;;;;;;5004579;28;20046;-86
2023/10/16 09:48:09;;;;;;;5.18;1.35;;;11.90;99.90;;;;;;5027072;28;20064;-87
2023/10/16 09:50:36;;;;;;;5.88;1.30;;;11.90;99.90;;;;;;5026386;28;20053;-86
2023/10/16 09:53:02;;;;;;;4.03;1.92;;;12.60;99.90;;;;;;5026763;28;20483;-86
2023/10/16 09:55:38;;;;;;;3.80;1.25;;;12.00;99.90;;;;;;5028017;28;20045;-84
2023/10/16 09:58:06;;;;;;;4.47;1.27;;;12.00;99.90;;;;;;5026202;28;20042;-84
2023/10/16 10:00:32;;;;;;;4.97;1.23;;;12.00;99.90;;;;;;5026481;28;20495;-84
2023/10/16 10:03:05;;;;;;;4.30;1.20;;;11.90;99.90;;;;;;5009702;28;20077;-85
2023/10/16 10:05:48;;;;;;;6.45;1.20;;;11.90;99.90;;;;;;5026804;28;20057;-86
2023/10/16 10:08:51;;;;;;;3.78;1.10;;;11.90;99.90;;;;;;5024717;28;20537;-87
2023/10/16 10:11:37;;;;;;;5.38;1.27;;;12.70;99.90;;;;;;5028489;28;20064;-84
2023/10/16 10:14:26;;;;;;;5.03;0.98;;;12.30;99.90;;;;;;5025147;28;20047;-85
2023/10/16 10:17:00;;;;;;;5.03;1.20;;;12.50;99.90;;;;;;5018627;28;20038;-85
2023/10/16 10:19:36;;;;;;;6.68;1.20;;;12.60;99.90;;;;;;5007197;28;20045;-87
2023/10/16 10:22:22;;;;;;;4.13;1.10;;;12.60;99.90;;;;;;5028102;28;20072;-87
2023/10/16 10:25:07;;;;;;;7.65;1.08;;;12.80;99.90;;;;;;5018288;28;20061;-85
2023/10/16 10:27:34;;;;;;;5.53;1.23;;;12.80;99.90;;;;;;5029714;28;20045;-86
2023/10/16 10:30:03;;;;;;;4.63;1.15;;;12.90;99.90;;;;;;5027445;28;20052;-85
2023/10/16 10:32:32;;;;;;;6.18;1.20;;;12.90;99.90;;;;;;5030274;28;20111;-84
2023/10/16 10:35:30;;;;;;;4.22;1.40;;;12.90;99.90;;;;;;5024963;28;20372;-87
2023/10/16 10:38:20;;;;;;;4.70;1.27;;;12.80;99.90;;;;;;5016579;28;20053;-86
2023/10/16 10:41:08;;;;;;;7.40;1.60;;;12.70;99.90;;;;;;5026447;28;20037;-84
2023/10/16 10:43:48;;;;;;;3.50;1.17;;;13.60;99.90;;;;;;5026840;28;20124;-86
2023/10/16 10:46:20;;;;;;;3.15;1.23;;;12.60;99.90;;;;;;5030543;28;20130;-87
2023/10/16 10:48:46;;;;;;;4.50;1.00;;;12.50;99.90;;;;;;5030191;28;20056;-86
2023/10/16 10:51:14;;;;;;;2.50;0.95;;;12.50;99.90;;;;;;5029512;28;20041;-86
2023/10/16 10:53:53;;;;;;;3.00;1.27;;;12.80;99.90;;;;;;5033453;28;20052;-86
2023/10/16 10:56:20;;;;;;;3.22;1.27;;;12.50;99.90;;;;;;5033224;28;20506;-84
2023/10/16 10:58:47;;;;;;;3.97;1.33;;;12.50;99.90;;;;;;5031939;28;20060;-85
2023/10/16 11:01:16;;;;;;;4.00;1.83;;;12.40;99.90;;;;;;5031924;28;20072;-84
2023/10/16 11:03:45;;;;;;;2.55;1.27;;;12.40;99.90;;;;;;5029467;28;20045;-84
2023/10/16 11:06:20;;;;;;;2.95;1.27;;;12.30;99.90;;;;;;5013402;28;20066;-84
2023/10/16 11:08:47;;;;;;;5.13;1.20;;;12.20;99.90;;;;;;5013150;28;20045;-84
2023/10/16 11:11:14;;;;;;;3.47;1.33;;;12.30;99.90;;;;;;5019534;28;20048;-84
2023/10/16 11:13:47;;;;;;;4.68;1.10;;;12.40;99.90;;;;;;5020705;28;20679;-84
2023/10/16 11:16:14;;;;;;;4.38;1.40;;;13.30;99.90;;;;;;5032467;28;20406;-83
2023/10/16 11:19:00;;;;;;;3.63;1.25;;;12.60;99.90;;;;;;5016661;28;20045;-82
2023/10/16 11:21:27;;;;;;;2.78;1.17;;;12.10;99.90;;;;;;5032854;28;20134;-83
2023/10/16 11:24:00;;;;;;;3.40;0.90;;;12.70;99.90;;;;;;5050712;28;20041;-84
2023/10/16 11:26:29;;;;;;;4.10;1.10;;;12.80;99.90;;;;;;5032913;28;20403;-83
2023/10/16 11:28:56;;;;;;;4.97;1.55;;;12.90;99.90;;;;;;5031923;28;20162;-83
2023/10/16 11:31:22;;;;;;;6.53;1.10;;;12.90;99.90;;;;;;5031901;28;20033;-83
2023/10/16 11:34:00;;;;;;;6.22;1.50;;;13.90;99.90;;;;;;5031856;28;20106;-83
2023/10/16 11:36:27;;;;;;;3.97;0.80;;;12.90;99.90;;;;;;5049649;28;20045;-83
2023/10/16 11:38:58;;;;;;;4.75;1.20;;;12.90;99.90;;;;;;5049246;28;20056;-83
2023/10/16 11:41:25;;;;;;;6.03;1.30;;;13.00;99.90;;;;;;5032503;28;20051;-83
2023/10/16 11:43:53;;;;;;;3.72;1.08;;;13.00;99.90;;;;;;5015716;28;20056;-83
2023/10/16 11:46:28;;;;;;;2.90;1.15;;;13.10;99.90;;;;;;5032076;28;20057;-84
2023/10/16 11:51:49;;;;;;;2.13;0.95;;;13.20;99.90;;;;;;5031743;28;20049;-84
2023/10/16 11:54:19;;;;;;;2.78;0.93;;;13.30;99.90;;;;;;5032002;28;20885;-85
2023/10/16 11:56:50;;;;;;;7.60;1.40;;;13.20;99.90;;;;;;5031822;28;20494;-85
2023/10/16 11:59:19;;;;;;;1.92;0.77;;;13.20;99.90;;;;;;5032371;28;20359;-87
2023/10/16 12:01:45;;;;;;;2.78;0.90;;;13.20;99.90;;;;;;5015620;28;20095;-85
2023/10/16 12:04:12;;;;;;;3.95;1.00;;;13.20;99.90;;;;;;5031241;28;20037;-82
2023/10/16 12:06:38;;;;;;;4.82;1.05;;;13.20;99.90;;;;;;5049638;28;20479;-84
2023/10/16 12:09:12;;;;;;;4.20;1.92;;;13.30;99.90;;;;;;5031726;28;20105;-88
2023/10/16 12:11:43;;;;;;;4.30;1.25;;;13.30;99.90;;;;;;5049033;28;20505;-87
2023/10/16 12:14:13;;;;;;;2.58;0.90;;;13.30;99.90;;;;;;5033290;28;20048;-87
2023/10/16 12:16:40;;;;;;;3.70;0.90;;;13.40;99.90;;;;;;5032102;28;20140;-87
2023/10/16 12:19:06;;;;;;;3.33;1.00;;;13.40;99.90;;;;;;5015449;28;20518;-87
2023/10/16 12:21:32;;;;;;;1.83;0.93;;;13.40;99.90;;;;;;5031331;28;20059;-88
2023/10/16 12:23:58;;;;;;;3.70;1.05;;;14.10;99.90;;;;;;5031906;28;20057;-87
2023/10/16 12:26:24;;;;;;;3.85;1.75;;;13.30;99.90;;;;;;5030422;28;20154;-88
2023/10/16 12:28:50;;;;;;;2.92;1.25;;;13.30;99.90;;;;;;5030630;28;20110;-86
2023/10/16 12:31:16;;;;;;;2.55;1.23;;;13.30;99.90;;;;;;5030221;28;20040;-86
2023/10/16 12:33:41;;;;;;;1.52;1.05;;;13.20;99.90;;;;;;5029362;28;20506;-87
2023/10/16 12:36:08;;;;;;;4.70;0.90;;;13.20;99.90;;;;;;5030145;28;20059;-87
2023/10/16 12:38:33;;;;;;;2.45;0.90;;;13.20;99.90;;;;;;5030480;28;20052;-87
2023/10/16 12:41:05;;;;;;;2.97;1.05;;;13.20;99.90;;;;;;5030186;28;20414;-88
2023/10/16 12:43:30;;;;;;;2.85;0.90;;;13.00;99.90;;;;;;5031658;28;20064;-87
2023/10/16 12:45:59;;;;;;;2.17;0.85;;;13.20;99.90;;;;;;5031101;28;20041;-87
2023/10/16 12:48:30;;;;;;;2.38;0.82;;;13.20;99.90;;;;;;5032108;28;20053;-89
2023/10/16 12:50:59;;;;;;;4.05;1.13;;;13.30;99.90;;;;;;5030967;28;20053;-87
2023/10/16 12:53:27;;;;;;;3.70;1.23;;;13.20;99.90;;;;;;5030778;28;20077;-87
2023/10/16 12:55:55;;;;;;;2.88;0.95;;;13.30;99.90;;;;;;5031259;28;20041;-88
2023/10/16 12:58:22;;;;;;;2.53;0.95;;;13.40;99.90;;;;;;5031848;28;20049;-87
2023/10/16 13:00:50;;;;;;;2.97;1.08;;;13.40;99.90;;;;;;5031951;28;20037;-88
2023/10/16 13:03:22;;;;;;;4.10;1.52;;;13.40;99.90;;;;;;5031088;28;20532;-88
2023/10/16 13:05:49;;;;;;;2.00;1.10;;;13.50;99.90;;;;;;5031179;28;20131;-88
2023/10/16 13:08:17;;;;;;;2.53;0.80;;;13.60;99.90;;;;;;5030554;28;20934;-85
2023/10/16 13:10:43;;;;;;;3.42;1.00;;;13.60;99.90;;;;;;5029538;28;20048;-85
2023/10/16 13:13:09;;;;;;;3.50;1.00;;;13.60;99.90;;;;;;5031015;28;20053;-86
2023/10/16 13:15:35;;;;;;;4.75;1.00;;;14.10;99.90;;;;;;5029347;28;20059;-86
2023/10/16 13:18:01;;;;;;;2.40;1.10;;;13.50;99.90;;;;;;5013568;28;20061;-85
2023/10/16 13:20:27;;;;;;;2.30;0.90;;;13.50;99.90;;;;;;5026771;28;20045;-85
2023/10/16 13:22:55;;;;;;;4.75;1.20;;;13.50;99.90;;;;;;5027088;28;20057;-86
2023/10/16 13:25:22;;;;;;;2.30;0.88;;;13.90;99.90;;;;;;5009949;28;20495;-86
2023/10/16 13:27:48;;;;;;;2.75;1.23;;;13.50;99.90;;;;;;5026900;28;20448;-87
2023/10/16 13:30:16;;;;;;;3.03;0.88;;;13.50;99.90;;;;;;5026808;28;20041;-87
2023/10/16 13:32:46;;;;;;;1.90;0.98;;;13.50;99.90;;;;;;5027491;28;20057;-87
2023/10/16 13:35:13;;;;;;;4.60;1.00;;;13.50;99.90;;;;;;5027043;28;20045;-85
2023/10/16 13:37:46;;;;;;;2.70;0.80;;;13.50;99.90;;;;;;5027032;28;20046;-87
2023/10/16 13:40:20;;;;;;;2.55;0.88;;;13.50;99.90;;;;;;5014000;28;20083;-87
2023/10/16 13:42:54;;;;;;;3.35;1.15;;;13.40;99.90;;;;;;5027143;28;20091;-87
2023/10/16 13:45:25;;;;;;;3.58;0.90;;;13.40;99.90;;;;;;5026799;28;20482;-87
2023/10/16 13:47:51;;;;;;;3.55;1.10;;;13.30;99.90;;;;;;5043595;28;20140;-86
2023/10/16 13:50:28;;;;;;;3.65;1.00;;;13.90;99.90;;;;;;5026167;28;20137;-87
2023/10/16 13:52:54;;;;;;;4.97;1.02;;;13.30;99.90;;;;;;5026501;28;20120;-87
2023/10/16 13:55:22;;;;;;;6.10;1.27;;;13.40;99.90;;;;;;5026840;28;20060;-86
2023/10/16 13:57:49;;;;;;;4.30;0.90;;;13.50;99.90;;;;;;5026651;28;20128;-86
2023/10/16 14:00:31;;;;;;;2.78;1.10;;;13.30;99.90;;;;;;5026673;28;20092;-85
2023/10/16 14:03:17;;;;;;;11.00;3.97;;;13.30;99.90;;;;;;5027150;28;20129;-86
2023/10/16 14:05:46;;;;;;;5.85;2.47;;;13.30;99.90;;;;;;5026187;28;20055;-87
2023/10/16 14:08:17;;;;;;;6.88;4.82;;;13.30;99.90;;;;;;5024734;28;20709;-88
2023/10/16 14:10:49;;;;;;;7.18;6.43;;;13.30;99.90;;;;;;5022401;28;20056;-89
2023/10/16 14:13:19;;;;;;;11.18;7.25;;;13.30;99.90;;;;;;5023199;28;20053;-88
2023/10/16 14:15:46;;;;;;;3.03;1.63;;;13.30;99.90;;;;;;5007499;28;20046;-88
2023/10/16 14:18:20;;;;;;;3.35;0.98;;;13.90;99.90;;;;;;5009678;28;20236;-87
2023/10/16 14:20:47;;;;;;;7.45;2.40;;;14.00;99.90;;;;;;5010523;28;20056;-87
2023/10/16 14:23:17;;;;;;;27.27;20.60;;;13.30;99.90;;;;;;5026835;28;20058;-88
2023/10/16 14:25:47;;;;;;;7.70;5.22;;;13.60;99.90;;;;;;5027275;28;20045;-87
2023/10/16 14:28:25;;;;;;;3.30;1.77;;;13.30;99.90;;;;;;5033613;28;20109;-87
2023/10/16 14:30:56;;;;;;;5.38;3.08;;;13.30;99.90;;;;;;5034230;28;20053;-90
2023/10/16 14:33:25;;;;;;;2.63;1.70;;;13.20;99.90;;;;;;5017861;28;20540;-88
2023/10/16 14:35:50;;;;;;;13.98;2.83;;;13.20;99.90;;;;;;5033020;28;20049;-88
2023/10/16 14:38:19;;;;;;;11.48;7.40;;;13.30;99.90;;;;;;5033405;28;20068;-87
2023/10/16 14:40:45;;;;;;;5.20;2.70;;;13.70;99.90;;;;;;5017089;28;20136;-88
2023/10/16 14:43:11;;;;;;;7.78;6.72;;;13.20;99.90;;;;;;5033828;28;20077;-88
2023/10/16 14:45:38;;;;;;;3.47;1.35;;;13.20;99.90;;;;;;5033010;28;20088;-88
2023/10/16 14:48:04;;;;;;;4.25;1.58;;;13.30;99.90;;;;;;5033271;28;20081;-88
2023/10/16 14:50:32;;;;;;;2.97;0.80;;;12.60;99.90;;;;;;5031545;28;20046;-87
2023/10/16 14:53:01;;;;;;;3.53;0.95;;;13.20;99.90;;;;;;5031582;28;20169;-86
2023/10/16 14:55:28;;;;;;;5.85;1.33;;;13.20;99.90;;;;;;5032003;28;20399;-86
2023/10/16 14:57:57;;;;;;;3.92;1.40;;;13.30;99.90;;;;;;5032226;28;20510;-86
2023/10/16 15:00:28;;;;;;;3.47;1.10;;;13.90;99.90;;;;;;5032215;28;20041;-85
2023/10/16 15:02:57;;;;;;;4.00;1.15;;;13.20;99.90;;;;;;5031098;28;20517;-86
2023/10/16 15:05:24;;;;;;;4.22;1.20;;;13.40;99.90;;;;;;5031793;28;20430;-88
2023/10/16 15:07:51;;;;;;;4.68;1.00;;;13.40;99.90;;;;;;5032253;28;20053;-86
2023/10/16 15:10:18;;;;;;;4.93;1.45;;;13.10;99.90;;;;;;5032921;28;20099;-89
2023/10/16 15:12:44;;;;;;;2.70;1.23;;;13.00;99.90;;;;;;5032593;28;20047;-86